KOSH

Wittman Regional Airport

Oshkosh, Wisconsin, USA
METAR KOSH 231453Z 27005KT 10SM CLR 21/16 A3018 RMK AO2 SLP212 T02060156 50007 $
Observed Flight Rules
May-23 @ 14:53 UTC (15 minutes ago) Visual Flight Rules
Wind Visibility Clouds
270° at 5 knots 10 miles
  • Clear skies
Temperatures Readings
Current 21°C / 70°F
Dewpoint 16°C / 61°F
Humidity 73%
Altimeter 30.18" Hg
Pressure 1021.2 hPa
Elevation 248
METAR KOSH 231453Z 27005KT 10SM CLR 21/16 A3018 RMK AO2 SLP212 T02060156 50007 $
Observed Flight Rules
May-23 @ 14:53 UTC
(15 minutes ago)
VFR
Wind Visibility
270° at 5 knots 10 miles
Clouds
  • Clear skies
Temperature Dewpoint
21°C / 70°F 16°C / 61°F
Humidity Altimeter Pressure
73% 30.18" Hg 1021.2 hPa